createdAt,value
2022-08-24T00:00:44.991Z,79.00
2022-08-24T00:01:47.471Z,79.00
2022-08-24T00:02:51.185Z,79.00
2022-08-24T00:03:57.586Z,78.90
2022-08-24T00:05:03.489Z,78.90
2022-08-24T00:06:11.211Z,78.90
2022-08-24T00:07:21.915Z,79.00
2022-08-24T00:08:31.190Z,79.00
2022-08-24T00:09:37.711Z,79.00
2022-08-24T00:10:42.285Z,79.00
2022-08-24T00:11:47.628Z,79.00
2022-08-24T00:12:51.156Z,79.00
2022-08-24T00:13:54.207Z,79.10
2022-08-24T00:14:57.721Z,79.10
2022-08-24T00:16:00.436Z,79.10
2022-08-24T00:17:04.846Z,79.20
2022-08-24T00:18:07.759Z,79.30
2022-08-24T00:19:12.791Z,79.30
2022-08-24T00:20:16.296Z,79.30
2022-08-24T00:21:19.405Z,79.40
2022-08-24T00:22:23.027Z,79.40
2022-08-24T00:23:25.596Z,79.40
2022-08-24T00:24:29.578Z,79.40
2022-08-24T00:25:32.732Z,79.40
2022-08-24T00:26:36.541Z,79.40
2022-08-24T00:27:40.984Z,79.50
2022-08-24T00:28:44.532Z,79.50
2022-08-24T00:29:49.451Z,79.60
2022-08-24T00:30:53.333Z,79.90
2022-08-24T00:31:55.915Z,79.90
2022-08-24T00:32:59.557Z,80.00
2022-08-24T00:34:02.597Z,80.10
2022-08-24T00:35:10.005Z,80.20
2022-08-24T00:36:12.583Z,80.20
2022-08-24T00:37:16.147Z,80.30
2022-08-24T00:38:21.038Z,80.40
2022-08-24T00:39:24.912Z,80.40
2022-08-24T00:40:33.903Z,80.40
2022-08-24T00:41:43.062Z,80.30
2022-08-24T00:42:45.975Z,80.30
2022-08-24T00:43:55.547Z,80.40
2022-08-24T00:44:58.498Z,80.40
2022-08-24T00:46:19.758Z,80.30
2022-08-24T00:47:28.205Z,80.30
2022-08-24T00:48:38.394Z,80.50
2022-08-24T00:49:49.599Z,80.60
2022-08-24T00:50:59.636Z,80.60
2022-08-24T00:52:09.138Z,80.80
2022-08-24T00:53:18.652Z,80.80
2022-08-24T00:54:23.377Z,80.80
2022-08-24T00:55:33.848Z,80.80
2022-08-24T00:56:42.207Z,80.80
2022-08-24T00:57:50.731Z,80.90
2022-08-24T00:59:00.975Z,80.90
2022-08-24T01:00:11.629Z,80.90
2022-08-24T01:01:14.581Z,80.90
2022-08-24T01:02:23.004Z,81.00
2022-08-24T01:03:28.034Z,81.00
2022-08-24T01:04:39.807Z,81.00
2022-08-24T01:05:42.403Z,81.00
2022-08-24T01:06:49.925Z,81.00
2022-08-24T01:07:52.596Z,81.10
2022-08-24T01:08:57.008Z,81.10
2022-08-24T01:10:06.592Z,81.10
2022-08-24T01:11:15.598Z,81.20
2022-08-24T01:12:17.948Z,81.20
2022-08-24T01:13:23.076Z,81.20
2022-08-24T01:14:26.207Z,81.20
2022-08-24T01:15:31.245Z,81.30
2022-08-24T01:16:52.910Z,81.20
2022-08-24T01:18:14.408Z,81.30
2022-08-24T01:19:32.200Z,81.20
2022-08-24T01:20:36.744Z,81.30
2022-08-24T01:21:54.495Z,81.30
2022-08-24T01:23:09.432Z,81.40
2022-08-24T01:24:14.131Z,81.50
2022-08-24T01:25:21.362Z,81.40
2022-08-24T01:26:31.721Z,81.40
2022-08-24T01:27:37.455Z,81.50
2022-08-24T01:28:43.229Z,81.60
2022-08-24T01:29:48.080Z,81.90
2022-08-24T01:30:50.581Z,82.00
2022-08-24T01:31:54.947Z,82.00
2022-08-24T01:33:01.991Z,81.90
2022-08-24T01:34:06.993Z,82.00
2022-08-24T01:35:10.128Z,81.90
2022-08-24T01:36:34.382Z,82.00
2022-08-24T01:37:37.186Z,82.00
2022-08-24T01:38:47.914Z,82.00
2022-08-24T01:39:57.584Z,82.00
2022-08-24T01:41:05.737Z,82.00
2022-08-24T01:42:08.778Z,82.00
2022-08-24T01:43:15.088Z,81.90
2022-08-24T01:44:21.489Z,81.80
2022-08-24T01:45:25.096Z,81.80
2022-08-24T01:46:28.023Z,81.80
2022-08-24T01:47:31.706Z,81.70
2022-08-24T01:48:34.214Z,81.70
2022-08-24T01:49:42.750Z,81.70
2022-08-24T01:50:46.453Z,81.70
2022-08-24T01:51:48.951Z,81.70
2022-08-24T01:53:08.845Z,81.60
2022-08-24T01:54:11.858Z,81.70
2022-08-24T01:55:22.603Z,81.80
2022-08-24T01:56:25.731Z,81.80
2022-08-24T01:57:35.756Z,81.80
2022-08-24T01:58:45.419Z,81.80
2022-08-24T01:59:49.125Z,81.80
2022-08-24T02:00:51.669Z,81.80
2022-08-24T02:02:05.957Z,81.70
2022-08-24T02:03:08.781Z,81.70
2022-08-24T02:04:12.795Z,81.70
2022-08-24T02:05:22.252Z,81.70
2022-08-24T02:06:27.260Z,81.80
2022-08-24T02:07:32.925Z,81.80
2022-08-24T02:08:36.602Z,81.80
2022-08-24T02:09:39.214Z,81.80
2022-08-24T02:10:45.893Z,81.80
2022-08-24T02:11:57.639Z,81.90
2022-08-24T02:13:01.224Z,81.90
2022-08-24T02:14:06.020Z,82.00
2022-08-24T02:15:11.997Z,82.10
2022-08-24T02:16:14.936Z,82.40
2022-08-24T02:17:20.220Z,82.40
2022-08-24T02:18:22.754Z,82.40
2022-08-24T02:19:27.251Z,82.50
2022-08-24T02:20:30.348Z,82.60
2022-08-24T02:21:33.986Z,82.70
2022-08-24T02:22:36.759Z,82.70
2022-08-24T02:23:43.074Z,82.60
2022-08-24T02:24:45.917Z,82.60
2022-08-24T02:25:52.426Z,82.50
2022-08-24T02:26:55.300Z,82.50
2022-08-24T02:27:59.547Z,82.40
2022-08-24T02:29:03.861Z,82.40
2022-08-24T02:30:10.696Z,82.50
2022-08-24T02:31:15.628Z,82.40
2022-08-24T02:32:21.356Z,82.50
2022-08-24T02:33:25.710Z,82.50
2022-08-24T02:34:31.490Z,82.40
2022-08-24T02:35:34.719Z,82.40
2022-08-24T02:36:39.091Z,82.40
2022-08-24T02:37:43.749Z,82.40
2022-08-24T02:38:49.974Z,82.40
2022-08-24T02:39:54.533Z,82.40
2022-08-24T02:41:01.793Z,82.40
2022-08-24T02:42:05.633Z,82.40
2022-08-24T02:43:09.230Z,82.40
2022-08-24T02:44:13.734Z,82.40
2022-08-24T02:45:18.303Z,82.40
2022-08-24T02:46:24.192Z,82.40
2022-08-24T02:47:38.243Z,82.30
2022-08-24T02:48:44.105Z,82.30
2022-08-24T02:49:48.714Z,82.30
2022-08-24T02:50:53.005Z,82.30
2022-08-24T02:51:58.919Z,82.30
2022-08-24T02:53:01.701Z,82.40
2022-08-24T02:54:06.681Z,82.40
2022-08-24T02:55:20.018Z,82.50
2022-08-24T02:56:30.018Z,82.50
2022-08-24T02:57:32.616Z,82.60
2022-08-24T02:58:36.124Z,82.60
2022-08-24T02:59:38.765Z,82.60
2022-08-24T03:00:44.220Z,82.60
2022-08-24T03:02:54.410Z,82.70
2022-08-24T03:03:57.814Z,82.70
2022-08-24T03:05:01.610Z,82.70
2022-08-24T03:06:04.612Z,82.70
2022-08-24T03:07:08.020Z,82.70
2022-08-24T03:08:10.595Z,82.80
2022-08-24T03:09:15.470Z,82.80
2022-08-24T03:10:18.193Z,82.90
2022-08-24T03:11:26.881Z,82.80
2022-08-24T03:12:31.769Z,82.80
2022-08-24T03:13:36.437Z,82.80
2022-08-24T03:14:39.067Z,82.80
2022-08-24T03:15:42.727Z,82.80
2022-08-24T03:16:45.622Z,82.80
2022-08-24T03:17:49.800Z,82.80
2022-08-24T03:18:52.566Z,82.80
2022-08-24T03:19:56.119Z,82.90
2022-08-24T03:21:01.013Z,83.10
2022-08-24T03:22:04.990Z,83.10
2022-08-24T03:23:07.549Z,83.00
2022-08-24T03:24:11.551Z,83.00
2022-08-24T03:25:16.555Z,83.10
2022-08-24T03:26:20.344Z,83.00
2022-08-24T03:27:23.027Z,83.00
2022-08-24T03:28:27.916Z,82.90
2022-08-24T03:29:33.121Z,83.00
2022-08-24T03:30:39.255Z,83.10
2022-08-24T03:31:45.124Z,83.10
2022-08-24T03:32:48.611Z,83.10
2022-08-24T03:33:51.342Z,83.10
2022-08-24T03:34:55.902Z,83.00
2022-08-24T03:35:58.343Z,83.10
2022-08-24T03:37:03.334Z,83.00
2022-08-24T03:38:07.402Z,83.00
2022-08-24T03:39:10.887Z,83.00
2022-08-24T03:40:22.774Z,83.00
2022-08-24T03:41:31.136Z,83.00
2022-08-24T03:42:38.126Z,83.00
2022-08-24T03:43:48.970Z,83.00
2022-08-24T03:44:53.768Z,83.00
2022-08-24T03:45:57.460Z,83.00
2022-08-24T03:47:00.811Z,83.00
2022-08-24T03:48:06.444Z,83.00
2022-08-24T03:49:10.306Z,83.00
2022-08-24T03:50:15.218Z,83.00
2022-08-24T03:51:20.945Z,83.00
2022-08-24T03:52:28.234Z,83.00
2022-08-24T03:53:32.594Z,83.00
2022-08-24T03:54:37.099Z,83.00
2022-08-24T03:55:39.654Z,83.10
2022-08-24T03:56:43.598Z,83.20
2022-08-24T03:57:48.969Z,83.30
2022-08-24T03:58:53.922Z,83.30
2022-08-24T03:59:57.684Z,83.20
2022-08-24T04:01:01.324Z,83.20
2022-08-24T04:02:04.449Z,83.30
2022-08-24T04:03:11.616Z,83.30
2022-08-24T04:04:20.587Z,83.20
2022-08-24T04:05:24.680Z,83.20
2022-08-24T04:06:27.511Z,83.20
2022-08-24T04:07:31.430Z,83.20
2022-08-24T04:08:34.921Z,83.30
2022-08-24T04:09:38.823Z,83.50
2022-08-24T04:10:45.276Z,83.50
2022-08-24T04:11:52.003Z,83.50
2022-08-24T04:12:57.912Z,83.60
2022-08-24T04:14:02.999Z,83.90
2022-08-24T04:15:07.187Z,83.80
2022-08-24T04:16:13.950Z,83.90
2022-08-24T04:17:19.575Z,83.80
2022-08-24T04:18:28.565Z,83.70
2022-08-24T04:19:31.488Z,83.70
2022-08-24T04:20:41.089Z,83.60
2022-08-24T04:21:44.695Z,83.60
2022-08-24T04:22:49.150Z,83.70
2022-08-24T04:23:52.777Z,83.70
2022-08-24T04:24:57.179Z,83.60
2022-08-24T04:26:04.389Z,83.60
2022-08-24T04:27:08.134Z,83.60
2022-08-24T04:28:12.968Z,83.60
2022-08-24T04:29:20.447Z,83.60
2022-08-24T04:30:27.138Z,83.50
2022-08-24T04:31:46.023Z,83.50
2022-08-24T04:32:48.765Z,83.50
2022-08-24T04:33:54.072Z,83.50
2022-08-24T04:34:59.281Z,83.60
2022-08-24T04:37:15.236Z,83.80
2022-08-24T04:39:39.633Z,83.80
2022-08-24T04:42:07.207Z,83.80
2022-08-24T04:43:19.470Z,83.80
2022-08-24T04:44:25.203Z,83.80
2022-08-24T04:45:29.929Z,83.80
2022-08-24T04:46:32.637Z,83.80
2022-08-24T04:47:36.048Z,83.80
2022-08-24T04:48:38.776Z,83.90
2022-08-24T04:49:44.840Z,83.90
2022-08-24T04:50:47.339Z,83.90
2022-08-24T04:51:51.330Z,83.90
2022-08-24T04:52:53.763Z,83.90
2022-08-24T04:53:57.750Z,83.90
2022-08-24T04:55:00.882Z,83.90
2022-08-24T04:56:06.316Z,84.00
2022-08-24T04:57:08.896Z,84.10
2022-08-24T04:58:14.796Z,84.10
2022-08-24T04:59:17.423Z,84.10
2022-08-24T05:00:23.377Z,84.10
2022-08-24T05:01:29.474Z,84.20
2022-08-24T05:02:38.485Z,84.20
2022-08-24T05:03:46.039Z,84.30
2022-08-24T05:04:50.188Z,84.30
2022-08-24T05:05:53.264Z,84.30
2022-08-24T05:06:56.904Z,84.20
2022-08-24T05:08:00.638Z,84.10
2022-08-24T05:09:05.755Z,84.10
2022-08-24T05:10:11.551Z,84.10
2022-08-24T05:11:15.712Z,84.10
2022-08-24T05:12:20.981Z,84.10
2022-08-24T05:13:32.018Z,84.10
2022-08-24T05:14:35.928Z,84.10
2022-08-24T05:15:43.055Z,84.10
2022-08-24T05:16:53.205Z,84.10
2022-08-24T05:17:57.137Z,84.10
2022-08-24T05:19:03.037Z,84.00
2022-08-24T05:20:06.556Z,84.00
2022-08-24T05:21:12.132Z,84.00
2022-08-24T05:22:14.963Z,83.90
2022-08-24T05:23:23.720Z,83.90
2022-08-24T05:24:26.578Z,83.90
2022-08-24T05:25:33.968Z,83.90
2022-08-24T05:26:38.057Z,83.90
2022-08-24T05:27:41.821Z,83.90
2022-08-24T05:28:44.932Z,83.90
2022-08-24T05:29:48.732Z,83.90
2022-08-24T05:30:52.702Z,83.90
2022-08-24T05:31:56.259Z,83.90
2022-08-24T05:32:58.794Z,83.90
2022-08-24T05:34:06.367Z,83.80
2022-08-24T05:35:10.227Z,83.50
2022-08-24T05:36:19.923Z,83.30
2022-08-24T05:37:22.643Z,83.10
2022-08-24T05:38:50.515Z,83.00
2022-08-24T05:39:53.208Z,82.50
2022-08-24T05:40:56.945Z,82.10
2022-08-24T05:42:01.662Z,81.80
2022-08-24T05:43:08.546Z,81.40
2022-08-24T05:44:12.163Z,81.00
2022-08-24T05:45:15.829Z,80.70
2022-08-24T05:46:21.128Z,80.10
2022-08-24T05:47:25.451Z,79.60
2022-08-24T05:48:30.877Z,79.20
2022-08-24T05:49:44.037Z,78.80
2022-08-24T05:50:54.625Z,78.30
2022-08-24T05:51:58.885Z,77.80
2022-08-24T05:53:01.620Z,77.40
2022-08-24T05:54:06.436Z,76.90
2022-08-24T05:55:19.588Z,76.50
2022-08-24T05:56:23.784Z,75.80
2022-08-24T05:57:31.149Z,75.30
2022-08-24T05:58:47.788Z,74.90
2022-08-24T05:59:50.719Z,74.40
2022-08-24T06:00:54.833Z,73.90
2022-08-24T06:01:58.847Z,73.50
2022-08-24T06:03:03.077Z,73.20
2022-08-24T06:04:08.050Z,72.90
2022-08-24T06:05:14.324Z,72.70
2022-08-24T06:06:19.166Z,72.60
2022-08-24T06:07:23.068Z,72.50
2022-08-24T06:08:31.292Z,72.40
2022-08-24T06:09:35.678Z,72.40
2022-08-24T06:10:44.457Z,72.30
2022-08-24T06:11:47.667Z,72.20
2022-08-24T06:12:53.701Z,72.30
2022-08-24T06:14:00.026Z,72.30
2022-08-24T06:15:07.654Z,72.40
2022-08-24T06:16:21.578Z,72.50
2022-08-24T06:17:28.274Z,72.70
2022-08-24T06:18:32.763Z,72.90
2022-08-24T06:19:38.662Z,73.00
2022-08-24T06:20:42.947Z,73.20
2022-08-24T06:21:53.767Z,73.30
2022-08-24T06:22:56.996Z,73.40
2022-08-24T06:24:08.342Z,73.40
2022-08-24T06:25:29.493Z,73.50
2022-08-24T06:26:50.613Z,73.30
2022-08-24T06:27:53.886Z,73.20
2022-08-24T06:28:58.512Z,73.10
2022-08-24T06:30:06.733Z,72.90
2022-08-24T06:31:39.440Z,72.40
2022-08-24T06:32:47.237Z,72.00
2022-08-24T06:33:59.800Z,71.60
2022-08-24T06:35:03.564Z,71.30
2022-08-24T06:36:07.147Z,70.90
2022-08-24T06:37:11.410Z,70.30
2022-08-24T06:38:14.375Z,69.90
2022-08-24T06:39:18.059Z,69.40
2022-08-24T06:40:22.285Z,68.80
2022-08-24T06:41:26.593Z,68.50
2022-08-24T06:42:31.721Z,67.90
2022-08-24T06:43:37.071Z,67.20
2022-08-24T06:44:46.905Z,66.70
2022-08-24T06:45:58.994Z,66.50
2022-08-24T06:47:12.617Z,65.60
2022-08-24T06:48:18.731Z,65.20
2022-08-24T06:49:21.857Z,64.60
2022-08-24T06:50:26.585Z,64.30
2022-08-24T06:51:30.299Z,63.90
2022-08-24T06:52:35.247Z,63.50
2022-08-24T06:53:39.717Z,62.80
2022-08-24T06:54:43.370Z,61.80
2022-08-24T06:55:49.864Z,61.30
2022-08-24T06:56:53.654Z,60.70
2022-08-24T06:57:56.361Z,60.40
2022-08-24T06:59:03.421Z,59.70
2022-08-24T07:00:09.659Z,58.60
2022-08-24T07:01:16.294Z,58.50
2022-08-24T07:02:20.297Z,58.00
2022-08-24T07:03:25.939Z,57.50
2022-08-24T07:04:41.237Z,57.20
2022-08-24T07:06:05.292Z,57.20
2022-08-24T07:07:18.577Z,56.70
2022-08-24T07:08:22.582Z,56.50
2022-08-24T07:09:27.415Z,56.40
2022-08-24T07:10:30.686Z,56.40
2022-08-24T07:11:35.199Z,56.30
2022-08-24T07:12:38.273Z,56.20
2022-08-24T07:13:42.049Z,56.20
2022-08-24T07:14:45.663Z,55.90
2022-08-24T07:15:50.869Z,55.70
2022-08-24T07:16:54.874Z,56.10
2022-08-24T07:17:57.766Z,56.00
2022-08-24T07:19:03.403Z,55.90
2022-08-24T07:20:09.275Z,55.50
2022-08-24T07:21:35.896Z,56.00
2022-08-24T07:22:40.534Z,56.10
2022-08-24T07:23:45.746Z,55.60
2022-08-24T07:24:50.963Z,55.80
2022-08-24T07:25:56.203Z,55.50
2022-08-24T07:27:02.717Z,55.60
2022-08-24T07:28:09.833Z,55.40
2022-08-24T07:29:45.884Z,54.50
2022-08-24T07:30:43.604Z,54.20
2022-08-24T07:31:49.058Z,53.50
2022-08-24T07:33:01.878Z,53.00
2022-08-24T07:34:09.832Z,52.50
2022-08-24T07:35:13.130Z,52.10
2022-08-24T07:36:22.741Z,52.20
2022-08-24T07:37:40.182Z,51.40
2022-08-24T07:38:48.789Z,50.80
2022-08-24T07:39:51.736Z,51.00
2022-08-24T07:41:20.260Z,51.10
2022-08-24T07:42:27.110Z,50.80
2022-08-24T07:43:35.658Z,50.20
2022-08-24T07:44:43.924Z,50.00
2022-08-24T07:45:48.637Z,49.60
2022-08-24T07:46:52.648Z,49.30
2022-08-24T07:48:05.176Z,48.90
2022-08-24T07:49:31.674Z,48.30
2022-08-24T07:50:38.540Z,47.90
2022-08-24T07:51:46.541Z,48.20
2022-08-24T07:52:50.448Z,48.10
2022-08-24T07:53:54.374Z,47.80
2022-08-24T07:55:05.665Z,47.60
2022-08-24T07:56:10.860Z,46.90
2022-08-24T07:57:15.921Z,46.80
2022-08-24T07:58:19.875Z,46.70
2022-08-24T07:59:23.529Z,46.80
2022-08-24T08:00:28.116Z,46.20
2022-08-24T08:01:35.705Z,45.70
2022-08-24T08:02:41.480Z,45.40
2022-08-24T08:03:46.453Z,45.00
2022-08-24T08:04:56.924Z,45.00
2022-08-24T08:06:03.342Z,44.50
2022-08-24T08:07:07.425Z,44.40
2022-08-24T08:08:12.198Z,43.70
2022-08-24T08:09:17.059Z,43.60
2022-08-24T08:10:23.358Z,43.30
2022-08-24T08:11:34.299Z,43.50
2022-08-24T08:12:37.609Z,42.70
2022-08-24T08:14:45.300Z,42.90
2022-08-24T08:15:49.267Z,42.70
2022-08-24T08:16:53.691Z,42.70
2022-08-24T08:17:57.386Z,42.20
2022-08-24T08:19:16.300Z,41.90
2022-08-24T08:20:22.741Z,42.20
2022-08-24T08:21:44.380Z,42.10
2022-08-24T08:23:05.870Z,42.60
2022-08-24T08:24:20.661Z,41.80
2022-08-24T08:25:29.975Z,40.00
2022-08-24T08:26:33.348Z,41.10
2022-08-24T08:27:40.723Z,40.70
2022-08-24T08:28:43.499Z,40.10
2022-08-24T08:29:47.288Z,40.10
2022-08-24T08:30:50.425Z,39.80
2022-08-24T08:31:55.996Z,39.50
2022-08-24T08:32:59.703Z,39.40
2022-08-24T08:34:02.396Z,39.40
2022-08-24T08:35:07.856Z,39.50
2022-08-24T08:36:15.365Z,39.40
2022-08-24T08:37:26.330Z,39.10
2022-08-24T08:38:30.036Z,39.50
2022-08-24T08:39:33.980Z,39.50
2022-08-24T08:41:00.267Z,39.50
2022-08-24T08:42:49.458Z,39.30
2022-08-24T08:44:01.495Z,39.80
2022-08-24T08:45:45.074Z,39.10
2022-08-24T08:47:27.877Z,38.90
2022-08-24T08:49:11.288Z,38.90
2022-08-24T08:50:22.056Z,39.00
2022-08-24T08:52:15.056Z,38.10
2022-08-24T08:54:12.895Z,38.40
2022-08-24T08:55:32.518Z,38.10
2022-08-24T08:56:59.226Z,38.30
2022-08-24T08:58:25.526Z,37.80
2022-08-24T08:59:54.056Z,37.80
2022-08-24T09:01:11.622Z,37.70
2022-08-24T09:02:38.663Z,38.20
2022-08-24T09:04:21.739Z,38.40
2022-08-24T09:06:14.042Z,37.80
2022-08-24T09:07:43.575Z,37.40
2022-08-24T09:09:24.302Z,37.70
2022-08-24T09:10:51.948Z,37.10
2022-08-24T09:12:09.000Z,37.20
2022-08-24T09:13:49.532Z,36.50
2022-08-24T09:15:32.093Z,36.80
2022-08-24T09:17:13.117Z,36.90
2022-08-24T09:18:39.445Z,36.80
2022-08-24T09:20:06.885Z,36.00
2022-08-24T09:21:41.559Z,36.20
2022-08-24T09:22:49.597Z,36.10
2022-08-24T09:24:09.019Z,36.30
2022-08-24T09:25:26.846Z,36.40
2022-08-24T09:26:50.185Z,36.20
2022-08-24T09:28:15.834Z,36.40
2022-08-24T09:29:36.642Z,35.60
2022-08-24T09:31:11.794Z,36.30
2022-08-24T09:32:37.373Z,35.20
2022-08-24T09:33:51.708Z,35.60
2022-08-24T09:35:00.056Z,35.10
2022-08-24T09:36:14.162Z,35.00
2022-08-24T09:37:33.187Z,35.30
2022-08-24T09:39:06.056Z,35.20
2022-08-24T09:40:35.280Z,35.40
2022-08-24T09:42:28.933Z,34.90
2022-08-24T09:44:06.053Z,35.40
2022-08-24T09:46:03.979Z,35.60
2022-08-24T09:47:51.546Z,35.80
2022-08-24T09:49:40.887Z,35.90
2022-08-24T09:51:27.464Z,36.10
2022-08-24T09:53:32.885Z,35.80
2022-08-24T09:55:30.103Z,35.70
2022-08-24T09:57:09.326Z,35.80
2022-08-24T09:58:28.731Z,35.60
2022-08-24T10:00:12.240Z,35.70
2022-08-24T10:01:28.791Z,35.30
2022-08-24T10:02:54.023Z,35.20
2022-08-24T10:04:14.425Z,35.10
2022-08-24T10:05:36.409Z,34.90
2022-08-24T10:06:55.561Z,34.70
2022-08-24T10:08:07.926Z,35.70
2022-08-24T10:09:39.756Z,35.30
2022-08-24T10:10:54.127Z,34.90
2022-08-24T10:12:12.766Z,34.00
2022-08-24T10:13:30.995Z,34.80
2022-08-24T10:14:51.643Z,34.60
2022-08-24T10:16:24.705Z,35.00
2022-08-24T10:18:05.126Z,35.10
2022-08-24T10:19:31.919Z,34.70
2022-08-24T10:21:00.683Z,35.30
2022-08-24T10:22:14.569Z,35.00
2022-08-24T10:23:51.625Z,34.70
2022-08-24T10:25:28.799Z,34.80
2022-08-24T10:26:45.267Z,35.30
2022-08-24T10:28:05.291Z,35.20
2022-08-24T10:29:32.821Z,35.10
2022-08-24T10:30:53.074Z,35.00
2022-08-24T10:32:17.063Z,35.00
2022-08-24T10:33:25.783Z,34.90
2022-08-24T10:34:49.586Z,34.90
2022-08-24T10:36:43.858Z,35.00
2022-08-24T10:38:42.136Z,35.00
2022-08-24T10:40:14.261Z,34.70
2022-08-24T10:42:06.144Z,34.80
2022-08-24T10:43:51.490Z,34.60
2022-08-24T10:45:02.111Z,34.20
2022-08-24T10:46:40.559Z,34.50
2022-08-24T10:48:06.574Z,35.20
2022-08-24T10:50:03.558Z,34.70
2022-08-24T10:51:26.178Z,35.20
2022-08-24T10:53:10.185Z,35.10
2022-08-24T10:54:15.763Z,35.20
2022-08-24T10:55:23.111Z,34.70
2022-08-24T10:56:44.155Z,34.80
2022-08-24T10:58:06.074Z,35.10
2022-08-24T10:59:23.765Z,34.90
2022-08-24T11:00:30.031Z,35.60
2022-08-24T11:01:36.830Z,35.00
2022-08-24T11:02:41.954Z,34.80
2022-08-24T11:03:58.243Z,35.70
2022-08-24T11:05:05.801Z,34.90
2022-08-24T11:06:17.777Z,35.40
2022-08-24T11:07:23.146Z,35.20
2022-08-24T11:08:29.287Z,35.40
2022-08-24T11:09:48.309Z,35.80
2022-08-24T11:11:10.141Z,36.10
2022-08-24T11:12:26.425Z,36.20
2022-08-24T11:13:28.972Z,35.70
2022-08-24T11:14:34.005Z,35.60
2022-08-24T11:15:49.636Z,35.80
2022-08-24T11:16:57.689Z,36.40
2022-08-24T11:18:03.086Z,36.30
2022-08-24T11:19:13.306Z,36.20
2022-08-24T11:20:29.164Z,36.70
2022-08-24T11:21:46.158Z,36.80
2022-08-24T11:23:05.060Z,37.20
2022-08-24T11:24:24.072Z,37.30
2022-08-24T11:25:30.286Z,37.70
2022-08-24T11:26:54.328Z,38.20
2022-08-24T11:28:06.188Z,38.10
2022-08-24T11:29:11.076Z,38.10
2022-08-24T11:30:27.282Z,37.90
2022-08-24T11:31:36.010Z,37.90
2022-08-24T11:33:58.215Z,38.60
2022-08-24T11:35:07.299Z,38.60
2022-08-24T11:36:21.053Z,38.80
2022-08-24T11:37:31.136Z,38.90
2022-08-24T11:38:35.509Z,39.10
2022-08-24T11:39:38.829Z,39.40
2022-08-24T11:40:51.237Z,39.60
2022-08-24T11:42:01.923Z,39.70
2022-08-24T11:43:22.032Z,40.50
2022-08-24T11:44:44.306Z,41.10
2022-08-24T11:46:15.136Z,41.00
2022-08-24T11:47:48.651Z,40.60
2022-08-24T11:49:08.694Z,40.30
2022-08-24T11:50:26.712Z,40.50
2022-08-24T11:51:42.439Z,40.70
2022-08-24T11:53:04.373Z,40.80
2022-08-24T11:54:31.558Z,40.90
2022-08-24T11:55:47.336Z,40.90
2022-08-24T11:57:10.389Z,41.10
2022-08-24T11:58:19.930Z,41.70
2022-08-24T11:59:40.139Z,41.60
2022-08-24T12:00:54.249Z,41.70
2022-08-24T12:02:01.805Z,41.70
2022-08-24T12:03:20.136Z,41.20
2022-08-24T12:04:42.703Z,40.70
2022-08-24T12:05:56.262Z,40.10
2022-08-24T12:07:11.701Z,40.20
2022-08-24T12:08:24.606Z,40.30
2022-08-24T12:09:53.715Z,40.50
2022-08-24T12:11:06.602Z,41.10
2022-08-24T12:12:19.122Z,41.40
2022-08-24T12:13:34.505Z,41.40
2022-08-24T12:14:44.492Z,40.30
2022-08-24T12:15:56.172Z,40.60
2022-08-24T12:17:06.047Z,40.50
2022-08-24T12:18:26.820Z,40.20
2022-08-24T12:19:35.972Z,40.20
2022-08-24T12:20:43.554Z,40.00
2022-08-24T12:21:57.985Z,40.00
2022-08-24T12:23:07.785Z,39.20
2022-08-24T12:24:17.731Z,38.60
2022-08-24T12:25:39.261Z,38.50
2022-08-24T12:26:48.576Z,38.60
2022-08-24T12:27:53.708Z,38.60
2022-08-24T12:29:07.253Z,38.20
2022-08-24T12:30:15.860Z,38.50
2022-08-24T12:31:28.968Z,37.90
2022-08-24T12:32:39.086Z,38.20
2022-08-24T12:33:49.406Z,38.30
2022-08-24T12:34:58.968Z,38.30
2022-08-24T12:36:13.266Z,38.30
2022-08-24T12:37:23.085Z,38.10
2022-08-24T12:38:33.560Z,38.30
2022-08-24T12:39:43.996Z,38.50
2022-08-24T12:40:54.296Z,38.70
2022-08-24T12:42:09.302Z,39.10
2022-08-24T12:43:19.888Z,39.10
2022-08-24T12:44:32.532Z,39.20
2022-08-24T12:45:38.028Z,39.30
2022-08-24T12:46:44.696Z,39.60
2022-08-24T12:47:55.885Z,39.90
2022-08-24T12:49:05.280Z,40.00
2022-08-24T12:50:24.997Z,40.30
2022-08-24T12:51:49.593Z,40.40
2022-08-24T12:53:38.401Z,40.40
2022-08-24T12:55:09.436Z,40.30
2022-08-24T12:57:02.665Z,40.50
2022-08-24T12:58:31.223Z,40.70
2022-08-24T12:59:39.756Z,40.90
2022-08-24T13:00:47.050Z,41.00
2022-08-24T13:02:04.031Z,41.30
2022-08-24T13:03:26.939Z,41.50
2022-08-24T13:04:40.798Z,41.60
2022-08-24T13:05:48.591Z,41.60
2022-08-24T13:07:01.765Z,41.80
2022-08-24T13:08:15.597Z,41.60
2022-08-24T13:09:34.446Z,41.60
2022-08-24T13:10:44.901Z,41.80
2022-08-24T13:11:48.235Z,42.00
2022-08-24T13:13:12.077Z,42.20
2022-08-24T13:14:23.468Z,42.70
2022-08-24T13:16:00.391Z,42.50
2022-08-24T13:17:14.051Z,42.60
2022-08-24T13:18:47.522Z,42.70
2022-08-24T13:20:23.591Z,42.90
2022-08-24T13:21:43.564Z,43.10
2022-08-24T13:23:01.080Z,43.10
2022-08-24T13:25:01.113Z,43.20
2022-08-24T13:26:26.017Z,42.70
2022-08-24T13:28:28.887Z,43.40
2022-08-24T13:29:34.908Z,43.30
2022-08-24T13:31:17.343Z,43.10
2022-08-24T13:32:37.089Z,43.10
2022-08-24T13:33:45.216Z,43.30
2022-08-24T13:34:51.392Z,43.30
2022-08-24T13:36:08.569Z,43.10
2022-08-24T13:37:17.822Z,43.30
2022-08-24T13:39:09.200Z,43.40
2022-08-24T13:40:25.270Z,43.60
2022-08-24T13:42:00.551Z,43.40
2022-08-24T13:43:15.438Z,43.60
2022-08-24T13:44:34.617Z,43.80
2022-08-24T13:45:48.644Z,43.90
2022-08-24T13:47:03.717Z,44.10
2022-08-24T13:48:30.382Z,44.10
2022-08-24T13:50:01.969Z,44.60
2022-08-24T13:51:44.385Z,45.10
2022-08-24T13:53:05.390Z,45.40
2022-08-24T13:54:23.509Z,45.10
2022-08-24T13:55:46.851Z,45.50
2022-08-24T13:57:09.478Z,46.10
2022-08-24T13:58:35.887Z,46.40
2022-08-24T14:00:15.090Z,46.70
2022-08-24T14:01:31.605Z,46.60
2022-08-24T14:02:55.564Z,46.90
2022-08-24T14:04:17.316Z,47.00
2022-08-24T14:05:33.403Z,47.20
2022-08-24T14:06:51.167Z,47.30
2022-08-24T14:08:09.194Z,46.90
2022-08-24T14:09:36.366Z,47.00
2022-08-24T14:10:54.808Z,46.90
2022-08-24T14:12:26.758Z,47.40
2022-08-24T14:13:53.853Z,47.60
2022-08-24T14:15:16.390Z,47.50
2022-08-24T14:17:04.877Z,47.50
2022-08-24T14:18:15.284Z,47.90
2022-08-24T14:19:28.078Z,48.10
2022-08-24T14:21:09.403Z,47.80
2022-08-24T14:22:31.081Z,48.00
2022-08-24T14:23:53.006Z,47.90
2022-08-24T14:25:14.765Z,48.10
2022-08-24T14:27:09.656Z,47.80
2022-08-24T14:28:39.144Z,47.80
2022-08-24T14:29:48.746Z,48.10
2022-08-24T14:31:18.739Z,48.00
2022-08-24T14:32:31.911Z,48.10
2022-08-24T14:33:45.362Z,48.00
2022-08-24T14:34:58.838Z,47.80
2022-08-24T14:36:18.656Z,47.50
2022-08-24T14:37:40.328Z,47.40
2022-08-24T14:38:57.649Z,47.40
2022-08-24T14:40:17.197Z,47.60
2022-08-24T14:41:51.115Z,47.80
2022-08-24T14:42:58.780Z,47.80
2022-08-24T14:45:02.848Z,47.80
2022-08-24T14:46:18.469Z,47.60
2022-08-24T14:47:38.911Z,47.80
2022-08-24T14:48:55.075Z,47.90
2022-08-24T14:50:13.080Z,47.90
2022-08-24T14:51:40.802Z,48.20
2022-08-24T14:53:01.912Z,48.50
2022-08-24T14:54:20.719Z,48.60
2022-08-24T14:55:36.002Z,48.70
2022-08-24T14:56:58.443Z,48.50
2022-08-24T14:58:28.995Z,48.60
2022-08-24T14:59:50.973Z,48.60
2022-08-24T15:01:16.917Z,48.40
2022-08-24T15:03:08.297Z,48.30
2022-08-24T15:04:40.642Z,48.40
2022-08-24T15:06:23.147Z,48.30
2022-08-24T15:07:30.823Z,48.50
2022-08-24T15:08:43.854Z,48.50
2022-08-24T15:09:50.151Z,48.40
2022-08-24T15:11:00.083Z,48.30
2022-08-24T15:12:23.180Z,48.30
2022-08-24T15:13:34.539Z,48.20
2022-08-24T15:14:47.009Z,48.20
2022-08-24T15:15:57.726Z,48.50
2022-08-24T15:17:07.991Z,48.50
2022-08-24T15:18:27.649Z,48.50
2022-08-24T15:19:44.225Z,48.60
2022-08-24T15:21:20.644Z,48.70
2022-08-24T15:22:41.037Z,48.70
2022-08-24T15:24:09.317Z,48.80
2022-08-24T15:25:26.144Z,48.90
2022-08-24T15:26:41.607Z,49.10
2022-08-24T15:27:51.619Z,49.50
2022-08-24T15:28:56.875Z,49.50
2022-08-24T15:30:06.301Z,49.70
2022-08-24T15:31:11.795Z,49.90
2022-08-24T15:32:16.551Z,50.00
2022-08-24T15:33:20.638Z,50.00
2022-08-24T15:34:45.549Z,50.00
2022-08-24T15:35:51.713Z,50.00
2022-08-24T15:37:01.685Z,50.10
2022-08-24T15:38:24.098Z,50.20
2022-08-24T15:39:30.030Z,50.40
2022-08-24T15:40:33.883Z,50.50